Terminal Aerodrome Forecast
Issued by NWS

Home | Current Version | Previous Version | Text Only | Print | Product List | Glossary On
Versions: 1 2 3 4 5 6 7 8 9 10 11 12 13 14 15 16
000
FTUS45 KREV 181100
TAFMMH
TAF
KMMH 181120Z 1812/1912 VRB03KT P6SM VCSH SCT028 BKN070
     FM181600 VRB03KT P6SM SCT040 BKN180
      AMD NOT SKED TIL 181400=

USA.gov is the U.S. government's official web portal to all federal, state and local government web resources and services.